Asuncion, Paraguay

11:02 PM PYST on February 19, 2017 (GMT -0300)
25.26423473430501;-57.59360175740812 | | Change Station

Elev 0 ft 25.26 °S, 57.59 °W | Updated 2 minutes ago

Thunderstorm
Thunderstorm
75.9 °F
Feels Like 76 °F
N
0.0
Wind Variable Wind from SE
Gusts 1.6 mph

Today
High -- | Low -- °F
--% Chance of Precip.
Yesterday
High -- | Low -- °F
Precip. -- in
Pressure 29.92 in
Visibility 6.2 miles
Clouds Few 4000 ft
Mostly Cloudy 20000 ft
Heat Index 76 °F
Dew Point 73 °F
Humidity 92%
Rainfall 0.13 in
Snow Depth Not available.
6:39 AM 7:29 PM
Last Quarter, 38% visible
METAR SGAS 200100Z 00000KT 9999 VCTS FEW040CB BKN200 27/24 Q1013
Pressure 29.92 in
Visibility 6.2 miles
Clouds Few 4000 ft
Mostly Cloudy 20000 ft
Heat Index 76 °F
Dew Point 73 °F
Humidity 92%
Rainfall 0.13 in
Snow Depth Not available.
6:39 AM 7:29 PM
Last Quarter, 38% visible
METAR SGAS 200100Z 00000KT 9999 VCTS FEW040CB BKN200 27/24 Q1013

Get Your Daily Forecast Email!

Thanks for signing up!

Be on the lookout for a verification email in your inbox.

You'll start receiving the daily forecast at 8 AM.

×

10-Day Weather Forecast

No radar image for this location.
×

Almanac

Astronomy

Feb. 19, 2017 Rise Set
Actual Time
Civil Twilight
Nautical Twilight
Astronomical Twilight
Moon
Length of Visible Light
Length of Day
Tomorrow will be .
, % of the Moon is Illuminated

Today's Extremes

Country Highs Country Lows

Community

WunderPhotos

Upload Photos

1,962,540 photos uploaded!

WunderBlog® & News

Nearby

Air Quality

  Air Quality AQ Index Pollutant
Not available.

Snow Depth

Station Depth Elevation

Earthquake Activity

City Distance Mag. Time & Date
Minimum magnitude displayed is 2.5.

Coastal Water Temperatures

Place Temperature

Stations

Nearby Weather Stations

Station Location Temp. Windchill Dew Point Humidity Wind Precip. Elev Updated Type